createdAt,value
2022-09-07T00:02:09.776Z,2.20
2022-09-07T00:07:11.628Z,2.25
2022-09-07T00:12:13.434Z,2.13
2022-09-07T00:17:15.248Z,1.75
2022-09-07T00:22:17.036Z,1.92
2022-09-07T00:27:18.812Z,2.28
2022-09-07T00:32:20.632Z,1.90
2022-09-07T00:37:22.434Z,1.92
2022-09-07T00:42:24.260Z,2.20
2022-09-07T00:48:00.330Z,2.00
2022-09-07T00:53:23.385Z,1.90
2022-09-07T00:58:25.681Z,2.00
2022-09-07T01:03:32.296Z,1.80
2022-09-07T01:08:35.948Z,2.00
2022-09-07T01:13:41.031Z,2.20
2022-09-07T01:19:28.929Z,2.13
2022-09-07T01:24:42.809Z,2.00
2022-09-07T01:30:03.318Z,2.00
2022-09-07T01:35:11.741Z,2.58
2022-09-07T01:40:32.741Z,2.15
2022-09-07T01:45:39.401Z,1.92
2022-09-07T01:50:52.582Z,1.90
2022-09-07T01:56:01.806Z,1.80
2022-09-07T02:01:12.614Z,2.05
2022-09-07T02:06:25.336Z,1.90
2022-09-07T02:11:40.595Z,2.17
2022-09-07T02:16:55.336Z,2.30
2022-09-07T02:22:02.808Z,2.30
2022-09-07T02:27:10.653Z,1.88
2022-09-07T02:32:12.478Z,2.40
2022-09-07T02:37:16.153Z,2.28
2022-09-07T02:42:17.952Z,2.10
2022-09-07T02:47:49.656Z,2.40
2022-09-07T02:53:19.283Z,2.50
2022-09-07T02:59:06.844Z,1.92
2022-09-07T03:04:30.215Z,2.08
2022-09-07T03:09:40.962Z,2.50
2022-09-07T03:14:43.919Z,2.55
2022-09-07T03:19:45.838Z,2.50
2022-09-07T03:24:47.644Z,2.35
2022-09-07T03:29:50.805Z,1.92
2022-09-07T03:34:52.593Z,2.30
2022-09-07T03:39:54.551Z,2.40
2022-09-07T03:44:56.408Z,2.83
2022-09-07T03:49:58.184Z,2.35
2022-09-07T03:55:00.011Z,2.10
2022-09-07T04:00:03.573Z,2.22
2022-09-07T04:05:25.421Z,2.72
2022-09-07T04:10:27.746Z,2.90
2022-09-07T04:15:29.530Z,2.42
2022-09-07T04:20:31.385Z,2.60
2022-09-07T04:25:34.811Z,2.70
2022-09-07T04:30:36.622Z,2.90
2022-09-07T04:35:39.832Z,2.47
2022-09-07T04:40:42.090Z,2.30
2022-09-07T04:45:43.898Z,3.05
2022-09-07T04:50:45.717Z,2.60
2022-09-07T04:55:47.561Z,2.70
2022-09-07T05:00:49.416Z,3.00
2022-09-07T05:05:51.253Z,2.72
2022-09-07T05:10:54.801Z,2.55
2022-09-07T05:15:56.837Z,2.90
2022-09-07T05:21:11.865Z,2.65
2022-09-07T05:26:13.687Z,2.80
2022-09-07T05:31:19.209Z,2.90
2022-09-07T05:36:23.549Z,2.88
2022-09-07T05:41:26.964Z,3.28
2022-09-07T05:46:28.999Z,2.90
2022-09-07T05:51:30.799Z,3.05
2022-09-07T05:56:35.864Z,3.00
2022-09-07T06:01:37.890Z,3.20
2022-09-07T06:06:39.823Z,3.20
2022-09-07T06:11:41.726Z,4.63
2022-09-07T06:16:43.557Z,3.60
2022-09-07T06:21:45.442Z,3.28
2022-09-07T06:26:47.223Z,3.40
2022-09-07T06:37:10.973Z,3.35
2022-09-07T06:42:12.799Z,3.47
2022-09-07T06:47:18.656Z,3.88
2022-09-07T06:52:20.510Z,3.53
2022-09-07T06:57:22.318Z,4.53
2022-09-07T07:02:24.098Z,4.03
2022-09-07T07:07:25.922Z,3.70
2022-09-07T07:17:31.130Z,4.03
2022-09-07T07:22:48.683Z,4.47
2022-09-07T07:27:50.839Z,4.28
2022-09-07T07:32:53.158Z,4.00
2022-09-07T07:43:17.278Z,4.78
2022-09-07T07:48:19.010Z,4.60
2022-09-07T07:58:46.728Z,4.13
2022-09-07T08:03:49.079Z,5.22
2022-09-07T08:08:50.948Z,5.10
2022-09-07T08:13:53.567Z,4.95
2022-09-07T08:18:55.293Z,4.68
2022-09-07T08:23:57.067Z,5.68
2022-09-07T08:28:58.784Z,4.80
2022-09-07T08:34:00.527Z,7.30
2022-09-07T08:39:02.505Z,5.47
2022-09-07T08:44:32.473Z,6.03
2022-09-07T08:50:01.248Z,5.22
2022-09-07T08:55:54.348Z,8.20
2022-09-07T09:06:53.788Z,5.78
2022-09-07T09:12:19.432Z,6.13
2022-09-07T09:17:35.235Z,6.10
2022-09-07T09:22:37.345Z,6.50
2022-09-07T09:27:39.428Z,6.25
2022-09-07T09:32:43.943Z,6.18
2022-09-07T09:37:45.920Z,6.20
2022-09-07T09:42:48.225Z,6.38
2022-09-07T09:47:52.596Z,6.43
2022-09-07T09:52:55.291Z,7.20
2022-09-07T10:09:11.422Z,7.25
2022-09-07T10:14:35.347Z,7.72
2022-09-07T10:19:39.445Z,7.80
2022-09-07T10:24:41.495Z,7.75
2022-09-07T10:29:43.237Z,8.20
2022-09-07T10:35:14.721Z,8.30
2022-09-07T10:40:25.960Z,7.45
2022-09-07T10:45:35.678Z,7.95
2022-09-07T10:51:12.480Z,7.65
2022-09-07T10:56:25.614Z,7.13
2022-09-07T11:01:31.066Z,7.63
2022-09-07T11:06:38.748Z,8.05
2022-09-07T11:12:01.504Z,7.60
2022-09-07T11:17:16.234Z,8.20
2022-09-07T11:22:42.945Z,8.27
2022-09-07T11:27:52.862Z,8.48
2022-09-07T11:33:07.299Z,7.63
2022-09-07T11:38:53.931Z,7.78
2022-09-07T11:44:13.481Z,7.45
2022-09-07T11:54:33.953Z,7.93
2022-09-07T11:59:57.325Z,7.65
2022-09-07T12:05:19.706Z,8.98
2022-09-07T12:10:32.453Z,8.30
2022-09-07T12:15:46.151Z,7.63
2022-09-07T12:20:48.975Z,7.97
2022-09-07T12:25:52.514Z,8.10
2022-09-07T12:31:04.281Z,8.43
2022-09-07T12:36:38.351Z,8.20
2022-09-07T12:41:43.239Z,8.85
2022-09-07T12:46:48.201Z,8.25
2022-09-07T12:52:16.308Z,8.30
2022-09-07T12:57:39.870Z,9.23
2022-09-07T13:08:40.861Z,8.80
2022-09-07T13:14:08.673Z,8.15
2022-09-07T13:19:45.921Z,8.80
2022-09-07T13:24:52.661Z,8.68
2022-09-07T13:30:01.878Z,8.85
2022-09-07T13:40:10.835Z,8.68
2022-09-07T13:45:54.989Z,8.52
2022-09-07T13:51:18.930Z,8.82
2022-09-07T13:56:31.570Z,8.75
2022-09-07T14:01:33.346Z,8.27
2022-09-07T14:06:39.059Z,8.20
2022-09-07T14:11:48.182Z,9.60
2022-09-07T14:22:00.437Z,8.27
2022-09-07T14:27:03.008Z,10.60
2022-09-07T14:32:16.537Z,11.52
2022-09-07T14:37:21.294Z,8.70
2022-09-07T14:42:24.365Z,7.93
2022-09-07T14:47:33.717Z,9.68
2022-09-07T14:53:33.146Z,9.25
2022-09-07T14:58:10.412Z,8.50
2022-09-07T15:03:35.477Z,7.88
2022-09-07T15:08:40.233Z,8.65
2022-09-07T15:13:45.123Z,8.90
2022-09-07T15:19:02.088Z,8.27
2022-09-07T15:24:04.631Z,8.27
2022-09-07T15:29:08.837Z,7.38
2022-09-07T15:34:11.833Z,7.88
2022-09-07T15:39:22.346Z,7.93
2022-09-07T15:44:26.560Z,8.15
2022-09-07T15:49:29.814Z,8.20
2022-09-07T15:54:35.228Z,9.93
2022-09-07T15:59:38.486Z,8.68
2022-09-07T16:04:40.248Z,8.40
2022-09-07T16:09:42.166Z,8.02
2022-09-07T16:14:44.151Z,8.27
2022-09-07T16:19:46.011Z,8.68
2022-09-07T16:24:48.454Z,8.75
2022-09-07T16:29:51.609Z,8.68
2022-09-07T16:34:53.490Z,8.57
2022-09-07T16:39:56.538Z,8.65
2022-09-07T16:46:02.704Z,8.35
2022-09-07T16:50:19.918Z,8.65
2022-09-07T16:55:21.604Z,8.68
2022-09-07T17:00:23.381Z,9.52
2022-09-07T17:05:25.133Z,13.85
2022-09-07T17:10:28.668Z,12.40
2022-09-07T17:15:34.583Z,8.45
2022-09-07T17:20:36.299Z,9.20
2022-09-07T17:25:38.004Z,8.85
2022-09-07T17:30:39.893Z,8.57
2022-09-07T17:35:41.623Z,8.05
2022-09-07T17:40:43.997Z,7.95
2022-09-07T17:45:45.756Z,7.78
2022-09-07T17:50:47.495Z,6.10
2022-09-07T17:55:49.229Z,5.40
2022-09-07T18:00:51.431Z,6.18
2022-09-07T18:05:54.794Z,6.40
2022-09-07T18:16:30.398Z,6.20
2022-09-07T18:21:34.762Z,5.90
2022-09-07T18:26:40.135Z,5.85
2022-09-07T18:31:41.890Z,7.25
2022-09-07T18:36:43.953Z,7.40
2022-09-07T18:41:45.988Z,7.15
2022-09-07T18:46:47.702Z,7.38
2022-09-07T18:57:15.962Z,7.65
2022-09-07T19:02:19.024Z,7.60
2022-09-07T19:07:21.003Z,7.28
2022-09-07T19:12:24.124Z,7.85
2022-09-07T19:17:26.227Z,7.95
2022-09-07T19:22:28.084Z,7.47
2022-09-07T19:27:32.759Z,7.88
2022-09-07T19:32:34.474Z,8.20
2022-09-07T19:37:36.303Z,7.93
2022-09-07T19:42:38.362Z,8.00
2022-09-07T19:47:40.118Z,8.23
2022-09-07T19:52:42.510Z,7.55
2022-09-07T19:57:47.446Z,7.82
2022-09-07T20:02:50.071Z,8.85
2022-09-07T20:07:51.816Z,7.75
2022-09-07T20:12:53.613Z,7.18
2022-09-07T20:17:55.506Z,7.45
2022-09-07T20:22:57.215Z,7.63
2022-09-07T20:27:58.904Z,7.95
2022-09-07T20:33:00.603Z,7.22
2022-09-07T20:38:02.560Z,6.68
2022-09-07T20:43:04.491Z,6.55
2022-09-07T20:48:06.248Z,6.40
2022-09-07T20:53:08.430Z,6.45
2022-09-07T20:58:10.169Z,6.07
2022-09-07T21:03:12.182Z,5.95
2022-09-07T21:08:14.433Z,5.85
2022-09-07T21:13:16.313Z,5.70
2022-09-07T21:18:18.421Z,5.90
2022-09-07T21:23:20.122Z,5.57
2022-09-07T21:28:22.794Z,5.50
2022-09-07T21:33:25.642Z,5.00
2022-09-07T21:38:27.333Z,5.07
2022-09-07T21:43:29.133Z,6.00
2022-09-07T21:48:31.016Z,5.57
2022-09-07T21:53:33.007Z,5.78
2022-09-07T21:58:34.862Z,4.80
2022-09-07T22:03:36.608Z,4.82
2022-09-07T22:08:39.835Z,5.03
2022-09-07T22:13:42.198Z,4.68
2022-09-07T22:18:45.623Z,4.65
2022-09-07T22:23:50.330Z,4.30
2022-09-07T22:28:52.188Z,5.43
2022-09-07T22:33:54.772Z,5.03
2022-09-07T22:38:58.809Z,4.97
2022-09-07T22:44:00.945Z,4.40
2022-09-07T22:49:02.983Z,5.40
2022-09-07T22:54:05.231Z,5.43
2022-09-07T22:59:08.945Z,4.80
2022-09-07T23:04:11.394Z,5.00
2022-09-07T23:09:18.170Z,4.93
2022-09-07T23:14:24.607Z,4.65
2022-09-07T23:19:26.358Z,4.78
2022-09-07T23:24:28.113Z,4.63
2022-09-07T23:29:29.846Z,4.07
2022-09-07T23:34:31.543Z,4.28
2022-09-07T23:39:33.356Z,4.30
2022-09-07T23:44:35.569Z,4.55
2022-09-07T23:49:37.273Z,4.65
2022-09-07T23:54:38.976Z,4.13
2022-09-07T23:59:40.685Z,4.60
